createdAt,value
2023-02-08T00:00:06.398Z,77.57
2023-02-08T00:02:33.089Z,74.07
2023-02-08T00:04:59.819Z,72.97
2023-02-08T00:07:26.489Z,75.72
2023-02-08T00:09:53.227Z,73.80
2023-02-08T00:12:19.910Z,73.00
2023-02-08T00:14:46.655Z,72.57
2023-02-08T00:17:13.383Z,71.95
2023-02-08T00:19:40.115Z,71.35
2023-02-08T00:22:06.789Z,71.10
2023-02-08T00:24:33.592Z,78.90
2023-02-08T00:27:00.291Z,73.50
2023-02-08T00:29:27.001Z,70.00
2023-02-08T00:31:56.772Z,77.05
2023-02-08T00:34:23.464Z,75.68
2023-02-08T00:36:50.095Z,74.88
2023-02-08T00:39:16.772Z,84.35
2023-02-08T00:41:43.448Z,70.28
2023-02-08T00:44:10.113Z,74.03
2023-02-08T00:46:36.851Z,68.10
2023-02-08T00:49:03.564Z,74.53
2023-02-08T00:51:30.491Z,68.70
2023-02-08T00:53:57.195Z,71.97
2023-02-08T00:56:23.879Z,70.07
2023-02-08T00:58:50.563Z,65.72
2023-02-08T01:01:17.371Z,69.07
2023-02-08T01:03:44.201Z,69.78
2023-02-08T01:06:17.451Z,72.07
2023-02-08T01:08:44.326Z,69.05
2023-02-08T01:11:14.296Z,64.00
2023-02-08T01:13:41.413Z,67.63
2023-02-08T01:16:09.525Z,65.45
2023-02-08T01:18:36.594Z,66.10
2023-02-08T01:21:12.411Z,67.80
2023-02-08T01:23:40.067Z,66.32
2023-02-08T01:26:08.291Z,67.32
2023-02-08T01:28:36.145Z,70.65
2023-02-08T01:31:11.794Z,69.35
2023-02-08T01:36:06.550Z,64.15
2023-02-08T01:38:34.081Z,64.70
2023-02-08T01:41:00.910Z,67.68
2023-02-08T01:43:33.280Z,63.90
2023-02-08T01:46:00.239Z,62.85
2023-02-08T01:48:33.764Z,67.22
2023-02-08T01:51:14.084Z,64.13
2023-02-08T01:53:43.001Z,59.72
2023-02-08T01:56:20.433Z,63.42
2023-02-08T01:58:52.366Z,65.97
2023-02-08T02:01:19.300Z,62.05
2023-02-08T02:03:46.073Z,66.82
2023-02-08T02:06:17.225Z,61.90
2023-02-08T02:09:10.159Z,58.53
2023-02-08T02:12:05.209Z,68.85
2023-02-08T02:14:31.609Z,59.38
2023-02-08T02:17:00.870Z,58.13
2023-02-08T02:20:02.443Z,60.60
2023-02-08T02:22:54.885Z,59.85
2023-02-08T02:25:53.135Z,57.20
2023-02-08T02:28:34.835Z,59.72
2023-02-08T02:31:32.389Z,61.50
2023-02-08T02:34:08.119Z,60.67
2023-02-08T02:37:01.442Z,57.47
2023-02-08T02:39:49.821Z,60.20
2023-02-08T02:42:42.749Z,60.65
2023-02-08T02:45:32.810Z,63.25
2023-02-08T02:48:05.788Z,63.95
2023-02-08T02:50:38.387Z,61.75
2023-02-08T02:53:15.603Z,62.05
2023-02-08T02:55:46.785Z,67.38
2023-02-08T02:58:16.528Z,59.85
2023-02-08T03:00:43.228Z,61.40
2023-02-08T03:03:19.976Z,62.88
2023-02-08T03:05:47.345Z,62.92
2023-02-08T03:08:49.669Z,60.70
2023-02-08T03:11:28.218Z,63.72
2023-02-08T03:14:19.626Z,60.72
2023-02-08T03:17:23.572Z,64.30
2023-02-08T03:20:13.562Z,60.85
2023-02-08T03:22:46.943Z,55.25
2023-02-08T03:25:13.626Z,64.85
2023-02-08T03:27:51.553Z,52.83
2023-02-08T03:30:51.745Z,53.72
2023-02-08T03:33:30.768Z,53.42
2023-02-08T03:36:08.127Z,56.45
2023-02-08T03:38:41.806Z,58.38
2023-02-08T03:41:15.083Z,50.38
2023-02-08T03:44:05.531Z,50.08
2023-02-08T03:46:36.187Z,51.85
2023-02-08T03:49:08.582Z,52.17
2023-02-08T03:51:37.388Z,47.05
2023-02-08T03:54:07.944Z,45.92
2023-02-08T03:56:41.550Z,56.10
2023-02-08T03:59:15.376Z,48.05
2023-02-08T04:01:47.286Z,48.00
2023-02-08T04:04:15.602Z,49.03
2023-02-08T04:06:42.283Z,50.67
2023-02-08T04:09:09.085Z,48.95
2023-02-08T04:11:35.753Z,49.53
2023-02-08T04:14:02.500Z,50.90
2023-02-08T04:16:29.241Z,51.47
2023-02-08T04:18:55.916Z,49.78
2023-02-08T04:21:22.624Z,48.05
2023-02-08T04:23:49.304Z,50.38
2023-02-08T04:26:15.960Z,49.25
2023-02-08T04:28:42.625Z,49.40
2023-02-08T04:31:10.682Z,55.53
2023-02-08T04:33:37.437Z,46.10
2023-02-08T04:36:04.403Z,53.72
2023-02-08T04:38:31.467Z,48.08
2023-02-08T04:40:58.259Z,48.25
2023-02-08T04:43:25.113Z,54.65
2023-02-08T04:45:52.038Z,52.13
2023-02-08T04:48:19.792Z,52.63
2023-02-08T04:50:46.699Z,50.90
2023-02-08T04:53:13.832Z,58.15
2023-02-08T04:55:40.546Z,50.95
2023-02-08T04:58:07.266Z,55.88
2023-02-08T05:00:33.972Z,53.50
2023-02-08T05:03:00.704Z,54.80
2023-02-08T05:05:27.562Z,53.47
2023-02-08T05:07:54.439Z,53.92
2023-02-08T05:10:21.587Z,57.00
2023-02-08T05:12:48.311Z,55.70
2023-02-08T05:15:15.018Z,55.05
2023-02-08T05:17:41.659Z,54.83
2023-02-08T05:20:09.459Z,53.50
2023-02-08T05:22:36.451Z,53.38
2023-02-08T05:25:03.200Z,51.20
2023-02-08T05:27:30.068Z,56.13
2023-02-08T05:29:58.938Z,55.42
2023-02-08T05:32:26.133Z,58.72
2023-02-08T05:34:52.898Z,53.65
2023-02-08T05:37:19.830Z,56.45
2023-02-08T05:39:46.483Z,57.13
2023-02-08T05:42:13.143Z,54.78
2023-02-08T05:44:39.845Z,53.47
2023-02-08T05:47:06.611Z,57.67
2023-02-08T05:49:33.340Z,55.67
2023-02-08T05:52:00.040Z,61.33
2023-02-08T05:54:27.049Z,58.20
2023-02-08T05:56:53.657Z,58.67
2023-02-08T05:59:20.320Z,60.47
2023-02-08T06:01:46.979Z,57.60
2023-02-08T06:04:13.666Z,63.45
2023-02-08T06:06:40.401Z,63.08
2023-02-08T06:09:07.058Z,62.92
2023-02-08T06:11:33.769Z,61.88
2023-02-08T06:14:00.460Z,58.10
2023-02-08T06:16:27.233Z,60.38
2023-02-08T06:18:53.960Z,63.40
2023-02-08T06:21:21.153Z,58.92
2023-02-08T06:23:48.686Z,65.82
2023-02-08T06:26:15.436Z,63.78
2023-02-08T06:28:42.204Z,61.22
2023-02-08T06:31:08.850Z,62.83
2023-02-08T06:33:35.499Z,59.20
2023-02-08T06:36:02.196Z,63.90
2023-02-08T06:38:28.912Z,61.13
2023-02-08T06:40:55.715Z,65.97
2023-02-08T06:43:22.368Z,69.07
2023-02-08T06:45:49.140Z,62.85
2023-02-08T06:48:15.925Z,63.70
2023-02-08T06:50:42.941Z,66.07
2023-02-08T06:53:09.913Z,61.80
2023-02-08T06:55:36.593Z,65.43
2023-02-08T06:58:03.427Z,65.72
2023-02-08T07:00:30.286Z,62.17
2023-02-08T07:02:58.100Z,67.28
2023-02-08T07:05:24.892Z,62.10
2023-02-08T07:07:51.569Z,70.88
2023-02-08T07:10:18.275Z,65.38
2023-02-08T07:12:45.009Z,63.03
2023-02-08T07:15:11.718Z,61.28
2023-02-08T07:17:38.561Z,63.80
2023-02-08T07:20:05.654Z,64.03
2023-02-08T07:22:32.413Z,62.05
2023-02-08T07:24:59.105Z,64.25
2023-02-08T07:27:26.165Z,72.60
2023-02-08T07:29:52.904Z,67.25
2023-02-08T07:32:19.624Z,64.93
2023-02-08T07:34:46.370Z,63.63
2023-02-08T07:37:14.051Z,67.30
2023-02-08T07:39:40.769Z,61.85
2023-02-08T07:42:09.293Z,68.72
2023-02-08T07:44:39.461Z,64.72
2023-02-08T07:47:06.865Z,66.15
2023-02-08T07:49:33.868Z,66.30
2023-02-08T07:52:01.824Z,65.43
2023-02-08T07:54:29.876Z,69.22
2023-02-08T07:56:57.120Z,63.60
2023-02-08T07:59:23.964Z,67.78
2023-02-08T08:01:50.667Z,63.72
2023-02-08T08:04:17.569Z,66.88
2023-02-08T08:06:44.281Z,67.00
2023-02-08T08:09:10.964Z,67.40
2023-02-08T08:11:37.662Z,63.80
2023-02-08T08:14:04.392Z,63.97
2023-02-08T08:16:31.168Z,63.35
2023-02-08T08:18:58.046Z,66.35
2023-02-08T08:21:24.772Z,64.13
2023-02-08T08:23:51.462Z,65.60
2023-02-08T08:26:21.486Z,68.40
2023-02-08T08:28:49.075Z,66.32
2023-02-08T08:31:19.149Z,67.05
2023-02-08T08:33:46.561Z,66.97
2023-02-08T08:36:13.384Z,67.60
2023-02-08T08:38:40.040Z,66.75
2023-02-08T08:41:08.779Z,70.20
2023-02-08T08:43:35.571Z,71.43
2023-02-08T08:46:02.270Z,70.03
2023-02-08T08:48:28.988Z,67.45
2023-02-08T08:50:55.635Z,72.95
2023-02-08T08:53:23.028Z,74.55
2023-02-08T08:55:49.783Z,68.32
2023-02-08T08:58:16.549Z,71.55
2023-02-08T09:00:43.497Z,68.30
2023-02-08T09:03:10.435Z,70.35
2023-02-08T09:05:37.172Z,73.65
2023-02-08T09:08:03.930Z,72.38
2023-02-08T09:10:31.139Z,70.80
2023-02-08T09:12:58.691Z,74.75
2023-02-08T09:15:25.578Z,74.50
2023-02-08T09:17:52.306Z,74.88
2023-02-08T09:20:19.140Z,78.10
2023-02-08T09:22:45.918Z,70.05
2023-02-08T09:25:12.662Z,71.35
2023-02-08T09:27:39.304Z,70.82
2023-02-08T09:30:06.417Z,74.88
2023-02-08T09:32:33.638Z,70.78
2023-02-08T09:35:01.138Z,74.90
2023-02-08T09:37:28.583Z,69.70
2023-02-08T09:39:55.358Z,69.53
2023-02-08T09:42:32.163Z,72.88
2023-02-08T09:45:30.368Z,67.43
2023-02-08T09:48:11.854Z,71.43
2023-02-08T09:50:45.525Z,69.75
2023-02-08T09:53:15.046Z,72.65
2023-02-08T09:55:46.758Z,72.43
2023-02-08T09:58:26.407Z,74.13
2023-02-08T10:00:55.207Z,75.03
2023-02-08T10:03:41.697Z,72.13
2023-02-08T10:06:12.613Z,70.50
2023-02-08T10:08:40.831Z,75.43
2023-02-08T10:11:07.632Z,71.80
2023-02-08T10:13:46.750Z,72.95
2023-02-08T10:16:53.183Z,76.68
2023-02-08T10:19:41.824Z,75.43
2023-02-08T10:22:23.264Z,78.88
2023-02-08T10:24:52.940Z,75.80
2023-02-08T10:27:40.945Z,79.05
2023-02-08T10:30:16.330Z,75.80
2023-02-08T10:33:06.782Z,76.75
2023-02-08T10:35:36.839Z,78.05
2023-02-08T10:38:25.477Z,77.18
2023-02-08T10:40:59.793Z,77.05
2023-02-08T10:43:32.686Z,71.90
2023-02-08T10:46:14.223Z,73.68
2023-02-08T10:48:56.086Z,77.03
2023-02-08T10:51:22.768Z,74.95
2023-02-08T10:53:49.649Z,73.20
2023-02-08T10:56:49.906Z,71.50
2023-02-08T10:59:23.131Z,73.80
2023-02-08T11:01:50.632Z,71.95
2023-02-08T11:04:18.281Z,70.55
2023-02-08T11:06:46.847Z,69.78
2023-02-08T11:09:28.115Z,70.63
2023-02-08T11:11:56.331Z,69.43
2023-02-08T11:14:46.049Z,72.65
2023-02-08T11:17:44.400Z,67.72
2023-02-08T11:20:26.083Z,70.63
2023-02-08T11:22:53.101Z,69.57
2023-02-08T11:25:38.326Z,73.40
2023-02-08T11:28:21.273Z,72.13
2023-02-08T11:30:59.952Z,61.72
2023-02-08T11:33:28.177Z,73.13
2023-02-08T11:36:04.045Z,68.93
2023-02-08T11:38:33.459Z,68.80
2023-02-08T11:41:03.523Z,70.15
2023-02-08T11:43:33.221Z,68.05
2023-02-08T11:46:02.778Z,73.60
2023-02-08T11:48:40.834Z,78.97
2023-02-08T11:51:08.363Z,71.13
2023-02-08T11:53:39.826Z,67.70
2023-02-08T11:56:20.277Z,59.30
2023-02-08T11:59:00.430Z,69.97
2023-02-08T12:01:33.147Z,59.90
2023-02-08T12:04:04.530Z,64.25
2023-02-08T12:07:08.918Z,70.82
2023-02-08T12:09:54.400Z,66.57
2023-02-08T12:12:36.414Z,63.22
2023-02-08T12:15:15.376Z,68.03
2023-02-08T12:18:09.161Z,62.38
2023-02-08T12:20:35.911Z,65.38
2023-02-08T12:23:20.296Z,75.03
2023-02-08T12:25:52.893Z,63.03
2023-02-08T12:28:29.718Z,72.55
2023-02-08T12:31:05.841Z,65.82
2023-02-08T12:33:59.336Z,66.10
2023-02-08T12:36:51.161Z,74.22
2023-02-08T12:39:36.165Z,67.85
2023-02-08T12:42:18.299Z,68.22
2023-02-08T12:44:50.928Z,67.03
2023-02-08T12:48:03.351Z,59.97
2023-02-08T12:50:49.655Z,56.75
2023-02-08T12:53:35.007Z,58.58
2023-02-08T12:56:07.950Z,62.57
2023-02-08T12:58:45.713Z,69.03
2023-02-08T13:01:21.311Z,60.13
2023-02-08T13:06:29.089Z,57.17
2023-02-08T13:09:05.955Z,61.60
2023-02-08T13:11:52.041Z,64.10
2023-02-08T13:16:52.983Z,63.60
2023-02-08T13:19:25.405Z,59.97
2023-02-08T13:21:53.301Z,61.05
2023-02-08T13:24:31.296Z,63.42
2023-02-08T13:26:57.984Z,56.58
2023-02-08T13:29:28.152Z,62.47
2023-02-08T13:32:02.303Z,67.43
2023-02-08T13:34:31.787Z,52.92
2023-02-08T13:37:02.324Z,54.03
2023-02-08T13:39:41.830Z,60.22
2023-02-08T13:42:25.335Z,61.13
2023-02-08T13:44:55.097Z,58.10
2023-02-08T13:47:43.645Z,59.17
2023-02-08T13:50:57.298Z,57.75
2023-02-08T13:53:39.309Z,62.03
2023-02-08T13:56:09.945Z,54.20
2023-02-08T13:58:47.290Z,55.25
2023-02-08T14:01:20.535Z,57.67
2023-02-08T14:04:12.722Z,67.28
2023-02-08T14:06:53.241Z,54.88
2023-02-08T14:09:38.751Z,62.63
2023-02-08T14:12:45.480Z,56.33
2023-02-08T14:15:14.879Z,60.65
2023-02-08T14:17:47.292Z,58.38
2023-02-08T14:20:38.272Z,62.85
2023-02-08T14:23:20.304Z,54.28
2023-02-08T14:25:52.747Z,59.30
2023-02-08T14:28:26.928Z,54.63
2023-02-08T14:30:56.381Z,54.28
2023-02-08T14:33:39.536Z,55.47
2023-02-08T14:36:25.929Z,57.40
2023-02-08T14:39:07.033Z,54.22
2023-02-08T14:41:52.259Z,54.55
2023-02-08T14:44:37.941Z,49.75
2023-02-08T14:47:26.197Z,56.17
2023-02-08T14:50:04.235Z,52.03
2023-02-08T14:52:35.271Z,53.75
2023-02-08T14:55:15.525Z,55.28
2023-02-08T14:57:43.448Z,54.05
2023-02-08T15:00:23.923Z,57.38
2023-02-08T15:02:51.087Z,57.75
2023-02-08T15:05:29.931Z,55.08
2023-02-08T15:08:01.566Z,56.85
2023-02-08T15:10:30.100Z,56.58
2023-02-08T15:12:59.217Z,59.00
2023-02-08T15:15:36.014Z,60.03
2023-02-08T15:18:04.545Z,57.20
2023-02-08T15:20:33.625Z,57.28
2023-02-08T15:23:06.861Z,59.55
2023-02-08T15:25:38.070Z,61.50
2023-02-08T15:28:22.683Z,55.00
2023-02-08T15:31:00.461Z,56.00
2023-02-08T15:33:27.957Z,54.92
2023-02-08T15:36:06.517Z,56.60
2023-02-08T15:38:36.372Z,59.85
2023-02-08T15:41:12.949Z,57.90
2023-02-08T15:43:41.953Z,55.28
2023-02-08T15:46:17.655Z,58.55
2023-02-08T15:51:13.857Z,56.22
2023-02-08T15:53:46.817Z,59.63
2023-02-08T15:56:35.356Z,56.17
2023-02-08T15:59:05.470Z,57.38
2023-02-08T16:01:32.411Z,60.38
2023-02-08T16:04:03.299Z,63.28
2023-02-08T16:06:35.603Z,58.53
2023-02-08T16:09:03.247Z,59.22
2023-02-08T16:11:32.888Z,60.17
2023-02-08T16:14:02.173Z,55.63
2023-02-08T16:16:45.568Z,61.30
2023-02-08T16:19:28.967Z,59.47
2023-02-08T16:22:17.091Z,55.42
2023-02-08T16:24:43.903Z,51.20
2023-02-08T16:27:30.725Z,55.95
2023-02-08T16:29:58.261Z,57.80
2023-02-08T16:32:35.225Z,53.53
2023-02-08T16:35:12.858Z,56.53
2023-02-08T16:37:39.682Z,61.17
2023-02-08T16:40:44.242Z,60.28
2023-02-08T16:43:20.088Z,54.15
2023-02-08T16:48:34.204Z,57.58
2023-02-08T16:51:03.492Z,62.33
2023-02-08T16:53:41.278Z,59.45
2023-02-08T16:56:10.212Z,57.83
2023-02-08T16:58:37.431Z,58.83
2023-02-08T17:01:04.334Z,62.72
2023-02-08T17:03:31.106Z,55.65
2023-02-08T17:05:59.166Z,58.20
2023-02-08T17:08:26.798Z,58.17
2023-02-08T17:10:53.556Z,64.60
2023-02-08T17:13:21.403Z,62.85
2023-02-08T17:15:50.415Z,62.67
2023-02-08T17:18:17.837Z,59.30
2023-02-08T17:20:45.203Z,60.75
2023-02-08T17:23:12.879Z,62.53
2023-02-08T17:25:39.953Z,60.05
2023-02-08T17:28:15.719Z,64.18
2023-02-08T17:30:44.233Z,59.97
2023-02-08T17:33:13.239Z,57.22
2023-02-08T17:35:39.933Z,59.60
2023-02-08T17:38:06.664Z,60.97
2023-02-08T17:40:36.275Z,57.92
2023-02-08T17:43:04.009Z,62.53
2023-02-08T17:45:31.068Z,59.63
2023-02-08T17:48:00.317Z,60.85
2023-02-08T17:50:27.504Z,65.25
2023-02-08T17:52:54.207Z,63.00
2023-02-08T17:55:21.315Z,60.22
2023-02-08T17:57:48.166Z,62.47
2023-02-08T18:00:17.944Z,75.07
2023-02-08T18:02:46.801Z,69.13
2023-02-08T18:05:18.901Z,72.43
2023-02-08T18:07:45.681Z,61.88
2023-02-08T18:10:14.561Z,63.95
2023-02-08T18:12:42.091Z,65.00
2023-02-08T18:15:11.680Z,66.90
2023-02-08T18:17:39.344Z,59.22
2023-02-08T18:20:07.198Z,61.13
2023-02-08T18:22:34.374Z,57.10
2023-02-08T18:25:01.060Z,54.55
2023-02-08T18:27:27.749Z,61.63
2023-02-08T18:29:54.794Z,58.25
2023-02-08T18:32:21.541Z,63.50
2023-02-08T18:34:49.444Z,61.15
2023-02-08T18:37:16.408Z,67.75
2023-02-08T18:39:43.293Z,59.10
2023-02-08T18:42:10.064Z,59.85
2023-02-08T18:44:37.785Z,61.47
2023-02-08T18:47:05.723Z,60.97
2023-02-08T18:49:32.733Z,63.88
2023-02-08T18:51:59.595Z,55.10
2023-02-08T18:54:26.457Z,57.78
2023-02-08T18:56:53.236Z,64.20
2023-02-08T18:59:19.901Z,63.38
2023-02-08T19:01:46.602Z,57.92
2023-02-08T19:04:13.426Z,60.35
2023-02-08T19:06:40.154Z,58.45
2023-02-08T19:09:07.890Z,60.55
2023-02-08T19:11:39.862Z,62.58
2023-02-08T19:14:10.716Z,59.83
2023-02-08T19:16:37.968Z,66.97
2023-02-08T19:19:06.249Z,58.40
2023-02-08T19:21:33.650Z,57.22
2023-02-08T19:24:01.051Z,56.83
2023-02-08T19:26:30.692Z,69.18
2023-02-08T19:28:59.356Z,58.75
2023-02-08T19:31:27.847Z,61.08
2023-02-08T19:33:56.504Z,64.93
2023-02-08T19:36:31.907Z,60.10
2023-02-08T19:38:59.959Z,61.80
2023-02-08T19:41:32.142Z,64.15
2023-02-08T19:44:00.347Z,59.85
2023-02-08T19:46:28.130Z,66.63
2023-02-08T19:48:57.536Z,65.75
2023-02-08T19:51:24.206Z,59.92
2023-02-08T19:53:50.902Z,67.30
2023-02-08T19:56:19.022Z,65.85
2023-02-08T19:58:46.608Z,61.70
2023-02-08T20:01:19.315Z,61.08
2023-02-08T20:03:47.120Z,63.10
2023-02-08T20:06:19.920Z,64.80
2023-02-08T20:08:47.366Z,60.42
2023-02-08T20:11:17.703Z,67.03
2023-02-08T20:13:44.941Z,56.90
2023-02-08T20:16:12.022Z,60.67
2023-02-08T20:18:39.145Z,62.92
2023-02-08T20:21:06.528Z,64.25
2023-02-08T20:23:36.022Z,62.28
2023-02-08T20:26:27.270Z,58.58
2023-02-08T20:28:58.913Z,62.60
2023-02-08T20:31:32.397Z,57.63
2023-02-08T20:34:01.751Z,58.65
2023-02-08T20:36:30.742Z,59.00
2023-02-08T20:38:58.837Z,61.03
2023-02-08T20:41:28.155Z,60.85
2023-02-08T20:43:54.854Z,64.78
2023-02-08T20:46:30.248Z,82.40
2023-02-08T20:48:59.028Z,58.78
2023-02-08T20:51:26.871Z,55.85
2023-02-08T20:53:54.566Z,61.67
2023-02-08T20:56:24.276Z,58.60
2023-02-08T20:58:51.671Z,55.85
2023-02-08T21:01:22.091Z,62.20
2023-02-08T21:03:49.313Z,60.88
2023-02-08T21:06:17.587Z,62.17
2023-02-08T21:08:45.111Z,60.67
2023-02-08T21:11:12.093Z,56.97
2023-02-08T21:13:39.009Z,58.08
2023-02-08T21:16:09.970Z,60.58
2023-02-08T21:18:37.711Z,56.70
2023-02-08T21:21:05.434Z,55.75
2023-02-08T21:23:32.617Z,53.97
2023-02-08T21:26:00.210Z,56.50
2023-02-08T21:28:27.208Z,53.55
2023-02-08T21:31:03.949Z,62.13
2023-02-08T21:33:30.944Z,55.88
2023-02-08T21:36:01.867Z,52.80
2023-02-08T21:38:28.932Z,54.80
2023-02-08T21:40:55.692Z,54.67
2023-02-08T21:43:22.397Z,53.75
2023-02-08T21:45:49.157Z,53.58
2023-02-08T21:48:15.808Z,54.47
2023-02-08T21:50:43.095Z,53.90
2023-02-08T21:53:12.534Z,55.35
2023-02-08T21:55:44.111Z,54.13
2023-02-08T21:58:10.849Z,52.50
2023-02-08T22:00:37.616Z,52.88
2023-02-08T22:03:05.168Z,50.78
2023-02-08T22:05:31.933Z,51.47
2023-02-08T22:07:59.176Z,57.05
2023-02-08T22:10:28.618Z,46.17
2023-02-08T22:12:55.856Z,52.75
2023-02-08T22:15:25.425Z,53.83
2023-02-08T22:17:53.442Z,45.78
2023-02-08T22:20:20.273Z,49.35
2023-02-08T22:22:47.033Z,48.25
2023-02-08T22:25:14.131Z,45.53
2023-02-08T22:27:40.844Z,48.58
2023-02-08T22:30:09.706Z,48.83
2023-02-08T22:32:40.343Z,50.30
2023-02-08T22:35:07.780Z,46.05
2023-02-08T22:37:35.138Z,47.72
2023-02-08T22:40:02.265Z,49.35
2023-02-08T22:42:28.943Z,49.53
2023-02-08T22:44:55.917Z,46.25
2023-02-08T22:47:23.045Z,46.38
2023-02-08T22:49:49.732Z,47.13
2023-02-08T22:52:16.612Z,48.65
2023-02-08T22:54:43.826Z,49.88
2023-02-08T22:57:10.890Z,46.03
2023-02-08T22:59:38.649Z,52.80
2023-02-08T23:02:05.577Z,49.78
2023-02-08T23:04:32.538Z,47.08
2023-02-08T23:07:00.255Z,45.40
2023-02-08T23:09:27.050Z,46.10
2023-02-08T23:11:54.042Z,48.40
2023-02-08T23:14:20.836Z,41.85
2023-02-08T23:16:47.690Z,46.22
2023-02-08T23:19:16.681Z,46.13
2023-02-08T23:21:44.240Z,47.78
2023-02-08T23:24:11.293Z,51.80
2023-02-08T23:26:38.050Z,47.25
2023-02-08T23:29:04.781Z,47.83
2023-02-08T23:31:31.639Z,50.25
2023-02-08T23:33:59.228Z,46.70
2023-02-08T23:36:26.413Z,46.05
2023-02-08T23:38:53.098Z,44.53
2023-02-08T23:41:22.049Z,42.35
2023-02-08T23:43:51.101Z,48.38
2023-02-08T23:46:21.082Z,47.05
2023-02-08T23:48:47.915Z,48.50
2023-02-08T23:51:15.959Z,41.50
2023-02-08T23:53:42.705Z,43.63
2023-02-08T23:56:12.441Z,44.63
2023-02-08T23:58:39.191Z,38.10
